createdAt,value
2023-03-05T00:01:30.135Z,1.85
2023-03-05T00:03:58.232Z,1.20
2023-03-05T00:06:27.917Z,1.30
2023-03-05T00:08:57.048Z,1.45
2023-03-05T00:11:28.210Z,2.17
2023-03-05T00:13:56.683Z,2.35
2023-03-05T00:16:26.984Z,1.80
2023-03-05T00:18:56.762Z,3.13
2023-03-05T00:21:30.427Z,2.17
2023-03-05T00:24:01.654Z,3.20
2023-03-05T00:26:30.554Z,1.65
2023-03-05T00:28:58.519Z,1.55
2023-03-05T00:31:32.125Z,1.63
2023-03-05T00:34:09.441Z,1.95
2023-03-05T00:36:44.413Z,2.00
2023-03-05T00:39:12.591Z,1.50
2023-03-05T00:41:40.328Z,1.55
2023-03-05T00:44:08.618Z,2.47
2023-03-05T00:46:37.145Z,4.72
2023-03-05T00:49:04.763Z,4.45
2023-03-05T00:51:32.411Z,5.97
2023-03-05T00:54:00.110Z,7.97
2023-03-05T00:56:27.935Z,8.63
2023-03-05T00:58:55.988Z,6.95
2023-03-05T01:01:24.389Z,5.22
2023-03-05T01:03:52.109Z,7.07
2023-03-05T01:06:20.119Z,9.18
2023-03-05T01:08:48.125Z,5.68
2023-03-05T01:11:15.598Z,4.00
2023-03-05T01:13:43.224Z,7.78
2023-03-05T01:16:10.857Z,9.43
2023-03-05T01:18:39.390Z,9.85
2023-03-05T01:21:08.411Z,6.88
2023-03-05T01:23:37.575Z,8.48
2023-03-05T01:26:05.843Z,8.20
2023-03-05T01:28:33.566Z,12.70
2023-03-05T01:31:01.446Z,5.20
2023-03-05T01:33:29.199Z,7.20
2023-03-05T01:35:56.848Z,6.78
2023-03-05T01:38:24.551Z,3.72
2023-03-05T01:40:52.054Z,5.07
2023-03-05T01:43:26.596Z,4.20
2023-03-05T01:46:24.932Z,3.55
2023-03-05T01:49:24.719Z,3.58
2023-03-05T01:51:59.065Z,3.95
2023-03-05T01:54:34.447Z,12.40
2023-03-05T01:57:08.088Z,7.63
2023-03-05T01:59:38.480Z,14.00
2023-03-05T02:02:08.175Z,10.88
2023-03-05T02:04:46.868Z,3.90
2023-03-05T02:07:15.928Z,4.68
2023-03-05T02:09:43.558Z,6.75
2023-03-05T02:12:12.757Z,6.93
2023-03-05T02:14:42.674Z,3.25
2023-03-05T02:17:12.383Z,8.88
2023-03-05T02:19:54.510Z,8.15
2023-03-05T02:22:24.366Z,6.90
2023-03-05T02:24:52.178Z,4.57
2023-03-05T02:27:23.626Z,9.55
2023-03-05T02:29:52.288Z,4.60
2023-03-05T02:32:19.795Z,2.80
2023-03-05T02:34:47.270Z,3.17
2023-03-05T02:37:14.971Z,7.88
2023-03-05T02:39:42.506Z,5.28
2023-03-05T02:42:10.479Z,4.03
2023-03-05T02:44:38.046Z,4.28
2023-03-05T02:47:05.758Z,3.40
2023-03-05T02:49:33.353Z,4.47
2023-03-05T02:52:00.908Z,3.17
2023-03-05T02:54:28.539Z,3.92
2023-03-05T02:56:56.115Z,2.83
2023-03-05T02:59:23.713Z,3.22
2023-03-05T03:01:51.176Z,3.47
2023-03-05T03:04:18.654Z,3.55
2023-03-05T03:06:46.145Z,3.42
2023-03-05T03:09:13.668Z,3.05
2023-03-05T03:11:41.134Z,4.18
2023-03-05T03:14:08.849Z,5.88
2023-03-05T03:16:36.538Z,5.05
2023-03-05T03:19:04.240Z,4.90
2023-03-05T03:21:32.086Z,5.78
2023-03-05T03:23:59.594Z,5.30
2023-03-05T03:26:27.376Z,3.60
2023-03-05T03:28:54.940Z,3.50
2023-03-05T03:31:22.539Z,5.32
2023-03-05T03:33:52.990Z,3.63
2023-03-05T03:36:20.549Z,3.60
2023-03-05T03:38:48.030Z,3.85
2023-03-05T03:41:15.534Z,4.55
2023-03-05T03:43:43.069Z,3.75
2023-03-05T03:46:10.744Z,4.55
2023-03-05T03:48:38.300Z,3.53
2023-03-05T03:51:07.693Z,3.10
2023-03-05T03:53:35.349Z,3.47
2023-03-05T03:56:03.617Z,3.42
2023-03-05T03:58:31.351Z,3.40
2023-03-05T04:00:58.875Z,2.97
2023-03-05T04:03:26.481Z,3.03
2023-03-05T04:05:54.371Z,3.15
2023-03-05T04:08:22.187Z,2.75
2023-03-05T04:10:49.621Z,3.63
2023-03-05T04:13:17.113Z,3.28
2023-03-05T04:15:45.130Z,3.17
2023-03-05T04:18:12.603Z,3.90
2023-03-05T04:20:40.198Z,3.30
2023-03-05T04:23:07.666Z,3.38
2023-03-05T04:25:35.196Z,3.20
2023-03-05T04:28:02.949Z,3.30
2023-03-05T04:30:31.478Z,3.25
2023-03-05T04:32:59.138Z,3.85
2023-03-05T04:35:26.883Z,3.25
2023-03-05T04:37:54.455Z,3.03
2023-03-05T04:40:22.159Z,2.90
2023-03-05T04:42:49.680Z,3.35
2023-03-05T04:45:17.383Z,5.00
2023-03-05T04:47:44.892Z,3.78
2023-03-05T04:50:13.078Z,3.33
2023-03-05T04:52:42.109Z,2.90
2023-03-05T04:55:11.493Z,3.03
2023-03-05T04:57:39.859Z,2.95
2023-03-05T05:00:14.264Z,3.00
2023-03-05T05:02:43.770Z,2.92
2023-03-05T05:05:14.774Z,2.67
2023-03-05T05:07:42.396Z,3.33
2023-03-05T05:10:11.637Z,3.10
2023-03-05T05:12:39.453Z,2.85
2023-03-05T05:15:08.672Z,2.63
2023-03-05T05:17:36.955Z,3.15
2023-03-05T05:20:11.025Z,2.80
2023-03-05T05:22:38.546Z,3.72
2023-03-05T05:25:06.361Z,3.00
2023-03-05T05:27:34.135Z,2.88
2023-03-05T05:30:01.811Z,3.10
2023-03-05T05:32:29.320Z,3.25
2023-03-05T05:34:58.613Z,3.40
2023-03-05T05:37:27.020Z,3.15
2023-03-05T05:39:54.638Z,2.85
2023-03-05T05:42:23.883Z,2.95
2023-03-05T05:44:51.442Z,3.10
2023-03-05T05:47:19.205Z,3.17
2023-03-05T05:49:46.744Z,3.28
2023-03-05T05:52:14.474Z,3.25
2023-03-05T05:54:42.090Z,3.58
2023-03-05T05:57:09.548Z,3.25
2023-03-05T05:59:38.518Z,3.10
2023-03-05T06:02:08.016Z,3.47
2023-03-05T06:07:24.580Z,3.75
2023-03-05T06:09:52.003Z,4.22
2023-03-05T06:12:19.459Z,4.20
2023-03-05T06:14:47.097Z,3.85
2023-03-05T06:17:21.926Z,4.03
2023-03-05T06:19:55.506Z,4.05
2023-03-05T06:22:23.015Z,3.38
2023-03-05T06:24:50.500Z,3.80
2023-03-05T06:27:18.403Z,3.78
2023-03-05T06:29:45.876Z,4.43
2023-03-05T06:32:13.349Z,3.83
2023-03-05T06:34:40.972Z,4.28
2023-03-05T06:37:08.536Z,3.53
2023-03-05T06:39:36.011Z,4.07
2023-03-05T06:42:03.539Z,4.25
2023-03-05T06:44:31.050Z,4.18
2023-03-05T06:46:58.526Z,4.32
2023-03-05T06:49:26.248Z,4.40
2023-03-05T06:51:53.741Z,4.10
2023-03-05T06:54:21.330Z,4.43
2023-03-05T06:56:49.133Z,3.90
2023-03-05T06:59:17.852Z,4.38
2023-03-05T07:01:45.966Z,4.18
2023-03-05T07:04:14.442Z,3.70
2023-03-05T07:06:42.388Z,3.67
2023-03-05T07:09:13.939Z,3.70
2023-03-05T07:11:42.443Z,4.18
2023-03-05T07:14:09.946Z,3.95
2023-03-05T07:16:37.558Z,4.25
2023-03-05T07:19:07.584Z,4.05
2023-03-05T07:21:39.129Z,4.43
2023-03-05T07:24:08.387Z,3.78
2023-03-05T07:26:36.286Z,3.67
2023-03-05T07:29:04.260Z,4.32
2023-03-05T07:31:32.364Z,3.45
2023-03-05T07:34:02.091Z,3.75
2023-03-05T07:36:30.494Z,3.50
2023-03-05T07:38:58.097Z,3.72
2023-03-05T07:41:25.591Z,3.92
2023-03-05T07:43:54.671Z,3.97
2023-03-05T07:46:25.929Z,4.18
2023-03-05T07:48:56.874Z,3.67
2023-03-05T07:51:25.683Z,3.58
2023-03-05T07:53:55.427Z,3.20
2023-03-05T07:56:35.603Z,2.85
2023-03-05T07:59:06.442Z,3.45
2023-03-05T08:01:35.148Z,3.00
2023-03-05T08:04:03.376Z,2.88
2023-03-05T08:06:31.254Z,2.60
2023-03-05T08:08:59.520Z,2.45
2023-03-05T08:11:28.768Z,2.85
2023-03-05T08:13:59.586Z,3.20
2023-03-05T08:16:27.614Z,2.58
2023-03-05T08:18:57.466Z,3.00
2023-03-05T08:21:30.379Z,2.90
2023-03-05T08:23:58.407Z,3.15
2023-03-05T08:26:28.746Z,2.90
2023-03-05T08:28:56.333Z,2.90
2023-03-05T08:31:25.685Z,2.60
2023-03-05T08:33:55.606Z,2.97
2023-03-05T08:36:23.275Z,2.08
2023-03-05T08:38:51.343Z,2.55
2023-03-05T08:41:20.090Z,2.33
2023-03-05T08:43:47.621Z,2.65
2023-03-05T08:46:16.131Z,2.30
2023-03-05T08:48:43.849Z,1.90
2023-03-05T08:51:17.653Z,2.13
2023-03-05T08:53:46.703Z,2.17
2023-03-05T08:56:15.401Z,2.33
2023-03-05T08:58:43.347Z,2.25
2023-03-05T09:01:11.973Z,2.50
2023-03-05T09:03:40.224Z,2.90
2023-03-05T09:06:12.483Z,3.33
2023-03-05T09:08:40.046Z,3.60
2023-03-05T09:11:09.638Z,4.15
2023-03-05T09:13:37.276Z,3.67
2023-03-05T09:16:08.364Z,3.05
2023-03-05T09:18:37.000Z,3.70
2023-03-05T09:21:06.439Z,3.35
2023-03-05T09:23:34.072Z,3.17
2023-03-05T09:26:01.666Z,3.80
2023-03-05T09:28:29.252Z,3.10
2023-03-05T09:30:56.731Z,3.22
2023-03-05T09:33:24.149Z,4.15
2023-03-05T09:35:51.651Z,4.22
2023-03-05T09:38:19.472Z,3.95
2023-03-05T09:41:03.430Z,4.20
2023-03-05T09:43:51.639Z,4.00
2023-03-05T09:46:32.152Z,3.70
2023-03-05T09:49:14.418Z,3.30
2023-03-05T09:51:43.570Z,2.90
2023-03-05T09:54:20.031Z,3.70
2023-03-05T09:57:01.414Z,2.92
2023-03-05T09:59:31.573Z,1.80
2023-03-05T10:02:18.705Z,2.50
2023-03-05T10:04:57.329Z,3.05
2023-03-05T10:07:36.870Z,2.22
2023-03-05T10:10:15.788Z,2.53
2023-03-05T10:12:51.180Z,1.80
2023-03-05T10:15:39.285Z,2.33
2023-03-05T10:18:36.069Z,2.80
2023-03-05T10:21:09.045Z,1.90
2023-03-05T10:24:05.334Z,1.02
2023-03-05T10:26:59.057Z,3.33
2023-03-05T10:29:38.771Z,1.08
2023-03-05T10:32:37.482Z,1.20
2023-03-05T10:35:29.048Z,1.02
2023-03-05T10:38:21.602Z,1.35
2023-03-05T10:40:52.413Z,0.73
2023-03-05T10:43:34.911Z,1.40
2023-03-05T10:46:04.606Z,1.00
2023-03-05T10:48:35.205Z,1.40
2023-03-05T10:51:23.055Z,1.30
2023-03-05T10:53:59.575Z,1.27
2023-03-05T10:56:29.295Z,1.00
2023-03-05T10:58:56.986Z,1.02
2023-03-05T11:01:28.292Z,1.08
2023-03-05T11:04:01.391Z,1.38
2023-03-05T11:06:35.050Z,1.15
2023-03-05T11:09:21.109Z,1.05
2023-03-05T11:12:12.012Z,1.20
2023-03-05T11:14:45.774Z,1.30
2023-03-05T11:17:39.022Z,1.00
2023-03-05T11:20:28.060Z,1.10
2023-03-05T11:23:13.394Z,1.00
2023-03-05T11:26:02.529Z,0.90
2023-03-05T11:28:41.821Z,1.23
2023-03-05T11:31:21.736Z,0.98
2023-03-05T11:34:00.112Z,1.00
2023-03-05T11:36:53.956Z,0.90
2023-03-05T11:39:23.348Z,0.80
2023-03-05T11:41:54.168Z,0.90
2023-03-05T11:44:33.630Z,0.73
2023-03-05T11:47:22.562Z,1.20
2023-03-05T11:49:54.508Z,1.00
2023-03-05T11:52:40.409Z,1.10
2023-03-05T11:55:26.595Z,0.70
2023-03-05T11:58:23.968Z,0.80
2023-03-05T12:00:51.582Z,0.70
2023-03-05T12:03:34.132Z,0.60
2023-03-05T12:06:07.560Z,0.73
2023-03-05T12:08:38.694Z,0.50
2023-03-05T12:11:27.936Z,0.70
2023-03-05T12:14:28.918Z,0.73
2023-03-05T12:17:19.013Z,0.88
2023-03-05T12:20:12.068Z,0.47
2023-03-05T12:22:41.287Z,0.70
2023-03-05T12:25:45.806Z,0.70
2023-03-05T12:28:36.369Z,0.90
2023-03-05T12:31:08.367Z,0.63
2023-03-05T12:33:42.005Z,0.80
2023-03-05T12:36:21.363Z,0.90
2023-03-05T12:38:53.242Z,0.60
2023-03-05T12:41:23.513Z,0.77
2023-03-05T12:44:05.880Z,0.70
2023-03-05T12:46:38.333Z,0.90
2023-03-05T12:49:22.986Z,0.90
2023-03-05T12:51:52.892Z,1.05
2023-03-05T12:54:20.251Z,1.10
2023-03-05T12:56:48.245Z,1.15
2023-03-05T12:59:20.587Z,1.10
2023-03-05T13:01:55.685Z,1.20
2023-03-05T13:04:28.527Z,1.15
2023-03-05T13:07:04.782Z,1.08
2023-03-05T13:09:36.434Z,1.15
2023-03-05T13:12:11.065Z,1.30
2023-03-05T13:14:44.019Z,1.42
